Kankakee, IL

9:54 AM CDT on May 30, 2015 (GMT -0500)
Quail hallow | | Change Station
CLOSE
Current Station
Personal Weather Station
Location: Bradley, IL
Elevation: 669 ft
Nearby Weather Stations

Elev 669 ft 41.16 °N, 87.84 °W | Updated 12 minutes ago

Rain
Rain
70.5 °F
Feels Like 70.5 °F
N
0.0
Wind Variable Wind from South

Today
High -- | Low -- °F
--% Chance of Precip.
Yesterday
High -- | Low -- °F
Precip. -- in
5:22 AM 8:16 PM
Waxing Gibbous, 90% visible
Pressure 30.01 in
Visibility 10.0 miles
Clouds Mostly Cloudy 2600 ft
Overcast 3600 ft
Dew Point 65 °F
Humidity 84%
Rainfall 0.25 in
Snow Depth Not available.
UV 2 out of 12
Pollen .90 out of 12
Air Quality Not available.
Flu Activity Sporadic
METAR KIKK 301435Z AUTO 00000KT 10SM -DZ BKN026 OVC036 19/18 A3001 RMK AO2 P0001 T01920179

More Conditions Fewer Conditions

Pressure 30.01 in
Visibility 10.0 miles
Clouds Mostly Cloudy 2600 ft
Overcast 3600 ft
Dew Point 65 °F
Humidity 84%
Rainfall 0.25 in
Snow Depth Not available.
UV 2 out of 12
Pollen .90 out of 12
Air Quality Not available.
Flu Activity Sporadic
METAR KIKK 301435Z AUTO 00000KT 10SM -DZ BKN026 OVC036 19/18 A3001 RMK AO2 P0001 T01920179

More Conditions Fewer Conditions

10-Day Weather Forecast

Almanac

Astronomy

May. 30, 2015 Rise Set
Actual Time
Civil Twilight
Nautical Twilight
Astronomical Twilight
Moon
Length of Visible Light
Length of Day
Tomorrow will be .
, % of the Moon is Illuminated

Today's Extremes

State Highs State Lows

Community

WunderPhotos

Upload Photos

1,825,528 photos uploaded!

WunderBlogs® & News

Nearby

Air Quality

  Air Quality AQ Index Pollutant
Not available.

Snow Depth

Station Depth Elevation

Earthquake Activity

City Distance Mag. Time & Date
Minimum magnitude displayed is 2.5.

Coastal Water Temperatures

Place Temperature

Stations

Nearby Weather Stations

Station Location Temp. Windchill Dew Point Humidity Wind Precip. Elev Updated Type